Aérodrome :
LOGIN :

S'inscrire | Disclaimer

   EN    FR    IT 

 










Légende :    VFR   VFR Marginal   IFR   IFR Intensif   IFR Très Intensif
Visi : 
Plafond : 
>= 8 km
>= 3000ft
5 à 8 km
1000 à 3000 ft
1500m à 5 km
500 à 1000 ft
800 à 1500m
200 à 500 ft
< 800m
< 200 ft
Symboles :   Orages  Brouillard  Fortes neiges  Fortes précipitations  Vent > 20 kt
SIGMETs :   Divers  Orages  Givrage  Turbulence  Onde Orograph.  Cendres Volcan.






- Altitude de l'aérodrome : 1302 ft
- Code IATA : GNB


LFLS - Grenoble / St. Geoirs

DERNIER METAR :
  • 160730Z AUTO 25005KT 200V310 CAVOK 09/06 Q1010 NOSIG

METARs EXPIRÉS :
  • 160700Z AUTO VRB02KT CAVOK 09/06 Q1010 BECMG 25012KT
  • 160630Z AUTO 29004KT 210V320 CAVOK 09/06 Q1010 NOSIG
  • 160600Z AUTO 28006KT CAVOK 09/06 Q1010 NOSIG
  • 160530Z AUTO VRB05KT CAVOK 10/06 Q1010 NOSIG
  • 160500Z AUTO 28009KT 240V300 CAVOK 10/06 Q1010 NOSIG

TAF TAF LFLS
Valide du 16 à 03h jusqu'au 17 à 03h UTC


160200Z 1603/1703 31006KT CAVOK
TEMPO 1603/1608 BKN020
BECMG 1606/1608 25012KT
BECMG 1618/1620 32010KT
ATIS : +33 4 76 65 55 89



MET'MAP, la Météo Aéronautique d'un coup d'oeil ! - Copyright ORBIFLY Décembre 2007 - Disclaimer

ORBIFLY MET'MAP TEAM :

Programmation & Développement : Alexandra Zaïnal
Sur une idée originale de : Baudouin d'Aumeries
Assistance à la programmation : Marc-Olivier Méhu
Soutien technique & logistique : Manuel Goepfert

Contact : metmap@orbifly.com




SOURCES & CREDITS :

   NOAA